Time;durP1;ratioP1;P1;durP2;ratioP2;P2;SDS_P1;SDS_P2;PMS_P1;PMS_P2;Temp;Humidity;BMP_temperature;BMP_pressure;BME280_temperature;BME280_humidity;BME280_pressure;Samples;Min_cycle;Max_cycle;Signal;HPM_P1;HPM_P2
2023/06/14 00:02:22;;;;;;;20.50;14.60;;;;;;;11.58;69.08;98580.40;435429;1253;97894;-40
2023/06/14 00:12:29;;;;;;;18.70;12.70;;;;;;;11.77;69.39;98574.77;435461;1254;110371;-42
2023/06/14 00:32:44;;;;;;;14.10;10.30;;;;;;;11.88;70.07;98576.23;435432;1254;97951;-43
2023/06/14 00:42:51;;;;;;;12.50;9.00;;;;;;;11.98;70.28;98581.29;435448;1263;111036;-43
2023/06/14 00:52:59;;;;;;;11.20;9.20;;;;;;;12.10;70.55;98574.77;435356;1255;108497;-43
2023/06/14 01:03:07;;;;;;;13.60;9.60;;;;;;;12.19;70.81;98568.39;435344;1254;97897;-41
2023/06/14 01:13:21;;;;;;;11.10;9.20;;;;;;;12.30;71.18;98567.92;436325;1246;107011;-42
2023/06/14 01:43:46;;;;;;;12.40;9.70;;;;;;;12.22;71.96;98558.20;435394;1251;108244;-42
2023/06/14 01:53:53;;;;;;;14.60;10.90;;;;;;;12.23;72.08;98553.27;435474;1250;97722;-43
2023/06/14 02:04:01;;;;;;;12.70;9.90;;;;;;;12.14;72.42;98547.76;435349;1253;108351;-42
2023/06/14 02:14:10;;;;;;;11.90;10.20;;;;;;;12.09;72.91;98546.48;435324;1263;97905;-42
2023/06/14 02:24:18;;;;;;;15.10;11.70;;;;;;;12.01;73.53;98548.84;435417;1253;111015;-42
2023/06/14 02:34:25;;;;;;;12.80;9.70;;;;;;;12.07;73.70;98549.55;435404;1263;108120;-41
2023/06/14 02:44:32;;;;;;;17.00;12.80;;;;;;;12.18;73.90;98548.86;435401;1256;121839;-42
2023/06/14 02:54:40;;;;;;;14.50;11.10;;;;;;;12.13;74.03;98556.48;435375;1253;107460;-44
2023/06/14 03:04:47;;;;;;;14.70;11.10;;;;;;;12.09;73.94;98564.73;435320;1263;98509;-42
2023/06/14 03:14:56;;;;;;;12.90;10.50;;;;;;;12.08;74.36;98557.99;435380;1253;110045;-43
2023/06/14 03:35:16;;;;;;;13.10;10.80;;;;;;;12.10;74.92;98559.36;435578;1253;97845;-42
2023/06/14 03:45:24;;;;;;;11.30;9.20;;;;;;;11.89;75.74;98557.98;435477;1263;108947;-42
2023/06/14 03:55:33;;;;;;;11.30;8.80;;;;;;;11.79;76.19;98560.29;435374;1253;98080;-42
2023/06/14 04:05:44;;;;;;;13.20;8.80;;;;;;;11.75;76.69;98569.20;435221;1251;110631;-44
2023/06/14 04:15:52;;;;;;;13.40;9.60;;;;;;;11.76;76.91;98576.43;435221;1254;107272;-42
2023/06/14 04:36:04;;;;;;;11.00;9.00;;;;;;;11.75;78.39;98582.40;435579;1253;108351;-43
2023/06/14 04:46:14;;;;;;;9.10;8.10;;;;;;;11.78;78.74;98579.23;435372;1263;98313;-42
2023/06/14 04:56:22;;;;;;;21.80;11.10;;;;;;;11.82;78.89;98582.39;435232;1254;111611;-42
2023/06/14 05:06:30;;;;;;;12.80;9.10;;;;;;;11.82;79.50;98584.67;435311;1254;110490;-42
2023/06/14 05:26:44;;;;;;;11.90;9.20;;;;;;;12.14;80.03;98579.55;435377;1254;106840;-42
2023/06/14 05:36:51;;;;;;;12.40;8.60;;;;;;;12.32;80.42;98589.16;435385;1253;97898;-42
2023/06/14 05:46:59;;;;;;;13.70;9.10;;;;;;;12.43;80.20;98596.60;435497;1254;109718;-42
2023/06/14 05:57:06;;;;;;;13.40;8.40;;;;;;;12.46;80.12;98603.12;435277;1255;108065;-43
2023/06/14 06:07:13;;;;;;;12.30;9.00;;;;;;;12.49;80.22;98610.84;435635;1249;97957;-43
2023/06/14 06:17:20;;;;;;;12.20;9.40;;;;;;;12.49;80.23;98614.66;435452;1254;107744;-43
2023/06/14 06:27:27;;;;;;;14.10;10.20;;;;;;;12.47;80.20;98616.86;435314;1253;97894;-45
2023/06/14 06:37:34;;;;;;;14.50;10.90;;;;;;;12.57;80.25;98622.80;435463;1253;111042;-43
2023/06/14 06:47:42;;;;;;;16.20;10.20;;;;;;;12.89;80.25;98616.36;435515;1251;107961;-43
2023/06/14 07:07:56;;;;;;;14.20;10.90;;;;;;;13.31;79.78;98624.38;435473;1254;109492;-43
2023/06/14 07:28:10;;;;;;;15.30;11.90;;;;;;;13.90;79.83;98626.25;435424;1250;111727;-43
2023/06/14 07:38:18;;;;;;;15.90;11.60;;;;;;;13.76;79.46;98648.22;435450;1251;107639;-43
2023/06/14 07:48:25;;;;;;;11.90;9.80;;;;;;;13.42;79.67;98657.98;435526;1254;97927;-42
2023/06/14 07:58:36;;;;;;;13.10;10.10;;;;;;;13.44;79.70;98660.65;435524;1250;109712;-43
2023/06/14 08:08:43;;;;;;;11.40;9.90;;;;;;;13.59;79.97;98668.05;435263;1251;97897;-43
2023/06/14 08:28:58;;;;;;;11.00;8.90;;;;;;;14.02;80.34;98658.84;435428;1251;107096;-43
2023/06/14 08:39:05;;;;;;;15.40;11.50;;;;;;;14.32;80.22;98663.91;435548;1250;97778;-43
2023/06/14 08:59:21;;;;;;;14.80;11.10;;;;;;;14.10;80.51;98674.13;435396;1253;97909;-43
2023/06/14 09:09:28;;;;;;;14.50;10.70;;;;;;;13.96;80.79;98681.81;435395;1251;109780;-42
2023/06/14 09:29:43;;;;;;;12.20;9.80;;;;;;;14.57;80.64;98696.41;435466;1250;97766;-44
2023/06/14 09:39:52;;;;;;;15.80;11.20;;;;;;;14.55;81.00;98703.20;435620;1253;108303;-43
2023/06/14 09:50:00;;;;;;;12.60;9.00;;;;;;;14.58;81.44;98697.48;435501;1253;97874;-43
2023/06/14 10:10:14;;;;;;;16.40;11.50;;;;;;;14.90;80.92;98696.39;435646;1253;109404;-43
2023/06/14 10:20:22;;;;;;;11.10;7.70;;;;;;;15.12;80.71;98699.79;435336;1249;97885;-42
2023/06/14 10:30:29;;;;;;;8.20;7.20;;;;;;;15.36;80.38;98692.95;435621;1253;108396;-42
2023/06/14 10:40:40;;;;;;;10.50;9.40;;;;;;;15.50;80.02;98695.35;435563;1249;97241;-42
2023/06/14 11:00:57;;;;;;;12.70;7.90;;;;;;;15.03;79.90;98692.96;435359;1253;109292;-44
2023/06/14 11:11:08;;;;;;;9.60;7.80;;;;;;;14.74;80.33;98681.59;435392;1250;97892;-44
2023/06/14 11:21:16;;;;;;;11.90;8.70;;;;;;;14.75;80.31;98682.34;435244;1254;107435;-43
2023/06/14 11:31:22;;;;;;;11.70;8.60;;;;;;;14.78;80.23;98677.98;435381;1251;97986;-44
2023/06/14 11:41:33;;;;;;;9.00;7.10;;;;;;;14.98;80.54;98671.89;435433;1250;110468;-44
2023/06/14 11:51:43;;;;;;;9.60;7.60;;;;;;;15.29;80.27;98658.16;435403;1251;107336;-44
2023/06/14 12:01:50;;;;;;;13.90;12.50;;;;;;;15.54;79.75;98658.37;435349;1254;97854;-42
2023/06/14 12:12:01;;;;;;;8.00;7.20;;;;;;;15.67;79.31;98658.40;435450;1253;108457;-41
2023/06/14 12:22:10;;;;;;;11.20;9.50;;;;;;;15.70;79.35;98661.61;435722;1251;97253;-42
2023/06/14 12:32:17;;;;;;;11.20;9.30;;;;;;;15.63;78.93;98662.48;435506;1251;108894;-43
2023/06/14 12:42:24;;;;;;;10.30;9.10;;;;;;;15.46;78.81;98663.15;435479;1253;108110;-44
2023/06/14 12:52:35;;;;;;;9.80;8.70;;;;;;;15.62;79.62;98658.05;435477;1253;98555;-45
2023/06/14 13:02:43;;;;;;;13.70;10.80;;;;;;;15.83;79.50;98655.94;435692;1253;109698;-45
2023/06/14 13:12:50;;;;;;;12.50;10.90;;;;;;;15.97;79.77;98648.61;435603;1253;97857;-43
2023/06/14 13:22:57;;;;;;;11.20;7.90;;;;;;;15.91;79.28;98639.42;435416;1253;110500;-43
2023/06/14 13:33:04;;;;;;;9.70;7.80;;;;;;;15.92;79.68;98638.15;435542;1250;108925;-43
2023/06/14 13:43:11;;;;;;;10.90;9.50;;;;;;;16.35;80.01;98635.74;435621;1250;97720;-43
2023/06/14 13:53:19;;;;;;;13.10;11.40;;;;;;;16.88;79.85;98638.34;435573;1253;107632;-42
2023/06/14 14:03:26;;;;;;;10.70;9.50;;;;;;;17.03;79.25;98636.06;435347;1251;97902;-43
2023/06/14 14:23:40;;;;;;;12.40;8.10;;;;;;;17.30;78.66;98636.58;435637;1253;107757;-42
2023/06/14 14:33:48;;;;;;;8.50;6.40;;;;;;;16.89;77.81;98639.79;435603;1252;97450;-43
2023/06/14 14:43:55;;;;;;;7.50;6.10;;;;;;;16.25;77.55;98638.97;435596;1253;109472;-43
2023/06/14 14:54:03;;;;;;;9.60;6.10;;;;;;;15.71;77.69;98631.07;435461;1253;98067;-43
2023/06/14 15:04:09;;;;;;;9.10;6.00;;;;;;;15.65;77.97;98626.16;435424;1253;110459;-42
2023/06/14 15:14:16;;;;;;;9.40;7.60;;;;;;;15.75;78.38;98623.23;435486;1253;108414;-42
2023/06/14 15:24:24;;;;;;;15.80;8.80;;;;;;;15.66;78.49;98619.86;435184;1253;322609;-43
2023/06/14 15:34:48;;;;;;;11.10;7.10;;;;;;;15.44;78.39;98622.89;435525;1250;109396;-43
2023/06/14 15:44:56;;;;;;;7.90;5.20;;;;;;;15.14;78.99;98624.27;435499;1253;108597;-42
2023/06/14 15:55:04;;;;;;;7.00;6.10;;;;;;;15.21;79.27;98627.98;435595;1253;97902;-43
2023/06/14 16:05:10;;;;;;;13.40;7.60;;;;;;;15.50;79.47;98623.78;435508;1253;107202;-44
2023/06/14 16:15:17;;;;;;;16.50;9.80;;;;;;;15.67;79.26;98620.98;435477;1249;97877;-42
2023/06/14 16:25:25;;;;;;;15.60;10.30;;;;;;;15.61;79.55;98625.11;435678;1250;110056;-42
2023/06/14 16:35:32;;;;;;;18.80;11.90;;;;;;;15.54;79.27;98630.76;435464;1253;108631;-42
2023/06/14 16:45:40;;;;;;;12.40;9.70;;;;;;;15.47;79.33;98631.44;435503;1253;98029;-43
2023/06/14 16:55:48;;;;;;;16.40;11.60;;;;;;;15.43;79.50;98632.88;435394;1253;109828;-43
2023/06/14 17:05:58;;;;;;;15.80;12.30;;;;;;;15.32;79.41;98634.46;435392;1253;108528;-42
2023/06/14 17:16:06;;;;;;;13.20;9.60;;;;;;;15.19;79.80;98642.08;435501;1250;97893;-43
2023/06/14 17:26:13;;;;;;;17.50;13.10;;;;;;;15.07;79.93;98647.11;435469;1253;107829;-44
2023/06/14 17:36:21;;;;;;;17.90;10.90;;;;;;;15.04;80.24;98654.99;435428;1253;97858;-44
2023/06/14 17:46:28;;;;;;;13.20;10.90;;;;;;;14.97;80.25;98654.64;435426;1253;110318;-43
2023/06/14 17:56:36;;;;;;;17.80;11.50;;;;;;;14.90;80.59;98655.87;435419;1263;108334;-43
2023/06/14 18:06:44;;;;;;;18.10;12.00;;;;;;;14.81;80.95;98659.32;435428;1251;97166;-43
2023/06/14 18:16:51;;;;;;;17.30;11.70;;;;;;;14.67;80.95;98662.79;435177;1253;109488;-44
2023/06/14 18:37:04;;;;;;;17.40;13.20;;;;;;;14.52;81.50;98681.84;435396;1253;109756;-44
2023/06/14 18:57:20;;;;;;;10.10;6.30;;;;;;;14.16;82.26;98691.69;435427;1250;97883;-43
2023/06/14 19:07:27;;;;;;;8.50;5.60;;;;;;;13.78;82.70;98693.58;435500;1253;107356;-43
2023/06/14 19:17:34;;;;;;;12.50;5.20;;;;;;;13.55;82.83;98694.58;435351;1253;97952;-45
2023/06/14 19:27:42;;;;;;;4.50;3.30;;;;;;;13.47;83.09;98701.44;435364;1253;111019;-43
2023/06/14 19:37:51;;;;;;;12.10;4.50;;;;;;;13.38;83.00;98695.42;435440;1253;108228;-44
2023/06/14 19:47:57;;;;;;;6.90;4.40;;;;;;;13.30;83.02;98690.80;435356;1253;97861;-43
2023/06/14 19:58:25;;;;;;;11.60;6.00;;;;;;;13.40;83.50;98687.59;435447;1253;108600;-44
2023/06/14 20:08:32;;;;;;;5.10;4.40;;;;;;;13.45;83.34;98690.14;435507;1250;97999;-42
2023/06/14 20:18:40;;;;;;;4.80;3.50;;;;;;;13.50;83.33;98689.78;435407;1253;110772;-44
2023/06/14 20:28:47;;;;;;;3.60;3.20;;;;;;;13.43;83.23;98689.79;435319;1253;108326;-43
2023/06/14 20:38:53;;;;;;;9.10;5.00;;;;;;;13.44;83.36;98688.27;435557;1250;96632;-44
2023/06/14 20:49:00;;;;;;;8.30;5.20;;;;;;;13.44;83.34;98688.52;435403;1253;108534;-42
2023/06/14 21:09:14;;;;;;;17.80;13.10;;;;;;;13.43;83.68;98675.92;435427;1253;110433;-42
2023/06/14 21:19:22;;;;;;;19.20;12.70;;;;;;;13.40;83.69;98674.99;435581;1253;107066;-43
2023/06/14 21:29:29;;;;;;;15.30;10.90;;;;;;;13.38;83.79;98680.17;435574;1253;97490;-44
2023/06/14 21:39:38;;;;;;;15.60;11.20;;;;;;;13.28;83.49;98685.63;435359;1254;108450;-43
2023/06/14 21:59:50;;;;;;;13.90;8.30;;;;;;;13.27;84.41;98691.92;435503;1253;110370;-42
2023/06/14 22:20:05;;;;;;;13.70;10.80;;;;;;;13.27;84.21;98689.60;435393;1251;97967;-42
2023/06/14 22:30:14;;;;;;;15.90;12.20;;;;;;;13.16;84.03;98685.77;435484;1254;107920;-42
2023/06/14 22:40:22;;;;;;;13.90;10.10;;;;;;;13.08;84.21;98690.53;435443;1254;96900;-41
2023/06/14 22:50:30;;;;;;;9.90;8.20;;;;;;;13.09;84.27;98689.58;435431;1253;110457;-43
2023/06/14 23:00:37;;;;;;;11.10;8.60;;;;;;;12.98;84.19;98685.66;435366;1252;107833;-43
2023/06/14 23:10:45;;;;;;;17.30;10.90;;;;;;;12.78;84.33;98679.30;435538;1251;97839;-46
2023/06/14 23:30:57;;;;;;;9.90;8.00;;;;;;;12.71;84.43;98676.38;435481;1253;107194;-41
2023/06/14 23:41:05;;;;;;;8.80;7.90;;;;;;;12.70;84.61;98672.81;435398;1253;97908;-42
2023/06/14 23:51:12;;;;;;;10.70;7.90;;;;;;;12.73;84.64;98668.52;435364;1263;108592;-43
